Playa Giron, Cuba
Current Conditions -  °F | °C
As of 3:50 PM on Friday 19 Dec 2014 (Local Time) from MUVR Reporting Station
Few Clouds Few Clouds  
Wind Chill: 77°   Ceiling: Unl
Heat Index: 79°   Visibility: 6mi
Dew Point: 59°   Wind: 12mph
Humidity: 54%   Direction: 60°ENE
Pressure: 30"   Gusts: NA
Location:  22.07°N, 81.04°W
Report Text: MUVR 191950Z 06010KT 020V100 9000 FEW030 25/15 Q1016
Loading
Personal Weather Stations






























Interactive Weather Map New forecast layout! Learn more

10-Day Weather Forecast

Advertisements
Track Severe Weather on mobile